SWA1776 KBOS-KJFK
Flight info
| Callsign | SWA1776 |
|---|---|
| Flight time | 0h 43m |
| Altitude | 22000 |
| Route | SSOXS7 SSOXS BUZRD SEY PARCH3 |
| Aircraft | B38M/M-SDE1FGHILORVWXY/HB1 |
Departure
| Time | 2026-05-05 23:25 |
|---|---|
| Airport | Boston Logan International Airport (KBOS) |
Arrival
| Time | 2026-05-06 00:09 |
|---|---|
| Airport | John F. Kennedy International Airport (KJFK) |
| Time | Latitude | Longitude | Altitude | Speed | Heading |
|---|---|---|---|---|---|
| 2026-05-05 22:53 | 42.36044 | -71.01695 | 28 ft | 0 kts | 289° |
| 2026-05-05 23:12 | 42.36040 | -71.01678 | 29 ft | 2 kts | 289° |
| 2026-05-05 23:12 | 42.36035 | -71.01659 | 29 ft | 2 kts | 289° |
| 2026-05-05 23:12 | 42.36029 | -71.01639 | 28 ft | 2 kts | 289° |
| 2026-05-05 23:13 | 42.36024 | -71.01618 | 29 ft | 2 kts | 289° |
| 2026-05-05 23:13 | 42.36017 | -71.01599 | 30 ft | 2 kts | 317° |
| 2026-05-05 23:13 | 42.36004 | -71.01587 | 29 ft | 2 kts | 2° |
| 2026-05-05 23:13 | 42.36002 | -71.01587 | 29 ft | 0 kts | 8° |
| 2026-05-05 23:17 | 42.36014 | -71.01584 | 27 ft | 5 kts | 11° |
| 2026-05-05 23:18 | 42.36063 | -71.01564 | 29 ft | 9 kts | 18° |
| 2026-05-05 23:18 | 42.36135 | -71.01529 | 29 ft | 13 kts | 21° |
| 2026-05-05 23:18 | 42.36240 | -71.01477 | 29 ft | 19 kts | 21° |
| 2026-05-05 23:18 | 42.36382 | -71.01409 | 24 ft | 23 kts | 20° |
| 2026-05-05 23:19 | 42.36538 | -71.01321 | 26 ft | 26 kts | 25° |
| 2026-05-05 23:19 | 42.36714 | -71.01244 | 28 ft | 27 kts | 13° |
| 2026-05-05 23:19 | 42.36835 | -71.01283 | 28 ft | 13 kts | 19° |
| 2026-05-05 23:19 | 42.36880 | -71.01224 | 26 ft | 8 kts | 38° |
| 2026-05-05 23:20 | 42.36935 | -71.01165 | 29 ft | 13 kts | 40° |
| 2026-05-05 23:20 | 42.37022 | -71.01086 | 26 ft | 18 kts | 26° |
| 2026-05-05 23:20 | 42.37148 | -71.01004 | 23 ft | 22 kts | 26° |
| 2026-05-05 23:20 | 42.37294 | -71.00910 | 25 ft | 24 kts | 23° |
| 2026-05-05 23:21 | 42.37449 | -71.00833 | 24 ft | 24 kts | 20° |
| 2026-05-05 23:21 | 42.37613 | -71.00753 | 26 ft | 26 kts | 20° |
| 2026-05-05 23:21 | 42.37773 | -71.00676 | 29 ft | 20 kts | 20° |
| 2026-05-05 23:21 | 42.37838 | -71.00609 | 28 ft | 7 kts | 76° |
| 2026-05-05 23:22 | 42.37837 | -71.00578 | 29 ft | 0 kts | 103° |
| 2026-05-05 23:23 | 42.37835 | -71.00572 | 29 ft | 3 kts | 104° |
| 2026-05-05 23:24 | 42.37822 | -71.00514 | 28 ft | 10 kts | 110° |
| 2026-05-05 23:24 | 42.37777 | -71.00481 | 27 ft | 6 kts | 188° |
| 2026-05-05 23:24 | 42.37750 | -71.00492 | 27 ft | 0 kts | 199° |
| 2026-05-05 23:24 | 42.37701 | -71.00516 | 28 ft | 36 kts | 200° |
| 2026-05-05 23:25 | 42.37143 | -71.00788 | 25 ft | 129 kts | 201° |
| 2026-05-05 23:25 | 42.36130 | -71.01276 | 357 ft | 169 kts | 198° |
| 2026-05-05 23:25 | 42.34906 | -71.01606 | 1059 ft | 179 kts | 180° |
| 2026-05-05 23:25 | 42.33675 | -71.01248 | 1683 ft | 202 kts | 163° |
| 2026-05-05 23:26 | 42.32557 | -70.99907 | 2001 ft | 227 kts | 136° |
| 2026-05-05 23:26 | 42.31704 | -70.98083 | 2556 ft | 233 kts | 131° |
| 2026-05-05 23:26 | 42.31221 | -70.95820 | 3123 ft | 269 kts | 99° |
| 2026-05-05 23:26 | 42.31449 | -70.93273 | 3702 ft | 278 kts | 83° |
| 2026-05-05 23:27 | 42.31854 | -70.90689 | 4299 ft | 287 kts | 81° |
| 2026-05-05 23:27 | 42.32271 | -70.87944 | 4909 ft | 309 kts | 82° |
| 2026-05-05 23:27 | 42.32674 | -70.85028 | 5807 ft | 316 kts | 82° |
| 2026-05-05 23:27 | 42.33063 | -70.82104 | 6849 ft | 317 kts | 85° |
| 2026-05-05 23:28 | 42.32944 | -70.79218 | 7814 ft | 311 kts | 110° |
| 2026-05-05 23:28 | 42.32156 | -70.76525 | 8763 ft | 310 kts | 119° |
| 2026-05-05 23:28 | 42.31220 | -70.73836 | 9468 ft | 324 kts | 120° |
| 2026-05-05 23:28 | 42.30200 | -70.71036 | 10008 ft | 340 kts | 124° |
| 2026-05-05 23:29 | 42.28665 | -70.68608 | 10563 ft | 342 kts | 147° |
| 2026-05-05 23:29 | 42.26571 | -70.67086 | 11116 ft | 346 kts | 165° |
| 2026-05-05 23:29 | 42.24249 | -70.65984 | 11565 ft | 361 kts | 167° |
| 2026-05-05 23:29 | 42.21826 | -70.64937 | 12275 ft | 369 kts | 167° |
| 2026-05-05 23:30 | 42.19369 | -70.63836 | 13048 ft | 375 kts | 166° |
| 2026-05-05 23:30 | 42.17732 | -70.63070 | 13588 ft | 378 kts | 166° |
| 2026-05-05 23:30 | 42.14353 | -70.62101 | 14029 ft | 373 kts | 182° |
| 2026-05-05 23:30 | 42.11801 | -70.62364 | 14044 ft | 364 kts | 195° |
| 2026-05-05 23:31 | 42.09386 | -70.63312 | 14047 ft | 361 kts | 202° |
| 2026-05-05 23:31 | 42.07004 | -70.64374 | 14048 ft | 361 kts | 202° |
| 2026-05-05 23:31 | 42.04613 | -70.65439 | 14084 ft | 362 kts | 202° |
| 2026-05-05 23:31 | 42.02211 | -70.66492 | 14768 ft | 362 kts | 202° |
| 2026-05-05 23:32 | 41.99818 | -70.67539 | 15663 ft | 365 kts | 202° |
| 2026-05-05 23:32 | 41.97378 | -70.68616 | 16230 ft | 373 kts | 202° |
| 2026-05-05 23:32 | 41.94917 | -70.69700 | 16846 ft | 380 kts | 201° |
| 2026-05-05 23:32 | 41.92387 | -70.70808 | 17511 ft | 385 kts | 201° |
| 2026-05-05 23:33 | 41.89822 | -70.71930 | 18185 ft | 390 kts | 201° |
| 2026-05-05 23:33 | 41.87228 | -70.73067 | 18777 ft | 395 kts | 201° |
| 2026-05-05 23:33 | 41.84607 | -70.74225 | 19370 ft | 398 kts | 202° |
| 2026-05-05 23:33 | 41.82103 | -70.75795 | 19884 ft | 398 kts | 211° |
| 2026-05-05 23:34 | 41.79679 | -70.77622 | 20078 ft | 401 kts | 212° |
| 2026-05-05 23:34 | 41.77258 | -70.79457 | 19937 ft | 398 kts | 212° |
| 2026-05-05 23:34 | 41.75665 | -70.80655 | 20107 ft | 395 kts | 212° |
| 2026-05-05 23:34 | 41.72466 | -70.83051 | 20538 ft | 399 kts | 212° |
| 2026-05-05 23:35 | 41.70822 | -70.84282 | 20803 ft | 401 kts | 212° |
| 2026-05-05 23:35 | 41.67579 | -70.86716 | 21243 ft | 406 kts | 212° |
| 2026-05-05 23:35 | 41.65112 | -70.88562 | 21513 ft | 406 kts | 212° |
| 2026-05-05 23:35 | 41.62646 | -70.90402 | 21770 ft | 408 kts | 212° |
| 2026-05-05 23:36 | 41.60159 | -70.92264 | 21942 ft | 411 kts | 212° |
| 2026-05-05 23:36 | 41.58507 | -70.93502 | 21937 ft | 411 kts | 212° |
| 2026-05-05 23:36 | 41.56019 | -70.95360 | 21938 ft | 409 kts | 213° |
| 2026-05-05 23:36 | 41.53814 | -70.97706 | 21943 ft | 404 kts | 229° |
| 2026-05-05 23:37 | 41.52013 | -71.00567 | 21950 ft | 403 kts | 233° |
| 2026-05-05 23:37 | 41.50269 | -71.03499 | 21951 ft | 403 kts | 233° |
| 2026-05-05 23:37 | 41.48503 | -71.06399 | 21952 ft | 403 kts | 232° |
| 2026-05-05 23:37 | 41.46706 | -71.09282 | 21948 ft | 403 kts | 232° |
| 2026-05-05 23:38 | 41.44920 | -71.12164 | 21949 ft | 403 kts | 232° |
| 2026-05-05 23:38 | 41.43141 | -71.15069 | 21946 ft | 405 kts | 233° |
| 2026-05-05 23:38 | 41.41363 | -71.17964 | 21935 ft | 403 kts | 232° |
| 2026-05-05 23:38 | 41.39576 | -71.20854 | 21936 ft | 405 kts | 232° |
| 2026-05-05 23:39 | 41.37788 | -71.23741 | 21935 ft | 404 kts | 232° |
| 2026-05-05 23:39 | 41.36029 | -71.26589 | 21935 ft | 404 kts | 232° |
| 2026-05-05 23:39 | 41.34242 | -71.29480 | 21931 ft | 404 kts | 232° |
| 2026-05-05 23:39 | 41.32456 | -71.32362 | 21930 ft | 404 kts | 232° |
| 2026-05-05 23:40 | 41.30665 | -71.35250 | 21930 ft | 404 kts | 232° |
| 2026-05-05 23:40 | 41.28878 | -71.38129 | 21931 ft | 404 kts | 232° |
| 2026-05-05 23:40 | 41.27107 | -71.41029 | 21930 ft | 404 kts | 233° |
| 2026-05-05 23:40 | 41.25298 | -71.43880 | 21933 ft | 404 kts | 232° |
| 2026-05-05 23:41 | 41.23519 | -71.46712 | 21932 ft | 405 kts | 232° |
| 2026-05-05 23:41 | 41.21737 | -71.49605 | 21930 ft | 404 kts | 232° |
| 2026-05-05 23:41 | 41.19952 | -71.52486 | 21930 ft | 404 kts | 232° |
| 2026-05-05 23:41 | 41.18155 | -71.55354 | 21935 ft | 403 kts | 233° |
| 2026-05-05 23:42 | 41.16741 | -71.58521 | 21949 ft | 399 kts | 251° |
| 2026-05-05 23:42 | 41.16125 | -71.62100 | 21941 ft | 398 kts | 261° |
| 2026-05-05 23:42 | 41.15727 | -71.65738 | 21941 ft | 398 kts | 262° |
| 2026-05-05 23:42 | 41.15324 | -71.69371 | 21942 ft | 398 kts | 261° |
| 2026-05-05 23:43 | 41.14860 | -71.72984 | 21943 ft | 398 kts | 260° |
| 2026-05-05 23:43 | 41.14385 | -71.76596 | 21937 ft | 398 kts | 260° |
| 2026-05-05 23:43 | 41.13933 | -71.80246 | 21930 ft | 401 kts | 261° |
| 2026-05-05 23:43 | 41.13496 | -71.83850 | 21605 ft | 399 kts | 261° |
| 2026-05-05 23:44 | 41.13045 | -71.87461 | 21203 ft | 385 kts | 260° |
| 2026-05-05 23:44 | 41.12608 | -71.90882 | 20819 ft | 379 kts | 260° |
| 2026-05-05 23:44 | 41.12176 | -71.94300 | 20449 ft | 374 kts | 260° |
| 2026-05-05 23:44 | 41.11752 | -71.97684 | 20078 ft | 370 kts | 260° |
| 2026-05-05 23:45 | 41.11328 | -72.01039 | 19703 ft | 368 kts | 260° |
| 2026-05-05 23:45 | 41.10909 | -72.04337 | 19335 ft | 357 kts | 260° |
| 2026-05-05 23:45 | 41.10503 | -72.07524 | 18966 ft | 346 kts | 260° |
| 2026-05-05 23:45 | 41.10104 | -72.10653 | 18601 ft | 342 kts | 260° |
| 2026-05-05 23:46 | 41.09540 | -72.13683 | 18299 ft | 338 kts | 251° |
| 2026-05-05 23:46 | 41.08794 | -72.16625 | 17950 ft | 336 kts | 251° |
| 2026-05-05 23:46 | 41.08068 | -72.19558 | 17615 ft | 334 kts | 252° |
| 2026-05-05 23:46 | 41.07364 | -72.22436 | 17269 ft | 331 kts | 252° |
| 2026-05-05 23:47 | 41.06787 | -72.25369 | 16925 ft | 326 kts | 255° |
| 2026-05-05 23:47 | 41.06078 | -72.28222 | 16590 ft | 326 kts | 249° |
| 2026-05-05 23:47 | 41.05245 | -72.30998 | 16263 ft | 324 kts | 249° |
| 2026-05-05 23:47 | 41.04486 | -72.33800 | 15930 ft | 322 kts | 252° |
| 2026-05-05 23:48 | 41.03823 | -72.36633 | 15604 ft | 321 kts | 253° |
| 2026-05-05 23:48 | 41.03154 | -72.39443 | 15269 ft | 319 kts | 252° |
| 2026-05-05 23:48 | 41.02448 | -72.42230 | 14946 ft | 318 kts | 251° |
| 2026-05-05 23:48 | 41.01743 | -72.44996 | 14627 ft | 317 kts | 252° |
| 2026-05-05 23:49 | 41.01062 | -72.47723 | 14325 ft | 315 kts | 252° |
| 2026-05-05 23:49 | 41.00379 | -72.50473 | 14009 ft | 314 kts | 252° |
| 2026-05-05 23:49 | 40.99695 | -72.53203 | 13699 ft | 312 kts | 252° |
| 2026-05-05 23:49 | 40.99009 | -72.55930 | 13344 ft | 311 kts | 252° |
| 2026-05-05 23:50 | 40.98328 | -72.58637 | 13047 ft | 309 kts | 252° |
| 2026-05-05 23:50 | 40.97652 | -72.61327 | 12807 ft | 308 kts | 252° |
| 2026-05-05 23:50 | 40.96982 | -72.63986 | 12539 ft | 299 kts | 252° |
| 2026-05-05 23:50 | 40.96335 | -72.66549 | 12278 ft | 288 kts | 252° |
| 2026-05-05 23:51 | 40.95711 | -72.69022 | 12066 ft | 278 kts | 252° |
| 2026-05-05 23:51 | 40.95117 | -72.71372 | 12048 ft | 273 kts | 252° |
| 2026-05-05 23:51 | 40.94516 | -72.73749 | 12045 ft | 272 kts | 252° |
| 2026-05-05 23:51 | 40.93916 | -72.76119 | 12037 ft | 272 kts | 252° |
| 2026-05-05 23:52 | 40.93296 | -72.78479 | 12030 ft | 271 kts | 246° |
| 2026-05-05 23:52 | 40.92197 | -72.80539 | 12042 ft | 290 kts | 227° |
| 2026-05-05 23:52 | 40.90538 | -72.82283 | 12042 ft | 310 kts | 219° |
| 2026-05-05 23:52 | 40.88775 | -72.83928 | 12034 ft | 310 kts | 218° |
| 2026-05-05 23:53 | 40.87017 | -72.85575 | 12046 ft | 311 kts | 219° |
| 2026-05-05 23:53 | 40.85293 | -72.87239 | 12043 ft | 311 kts | 219° |
| 2026-05-05 23:53 | 40.83545 | -72.88931 | 12044 ft | 311 kts | 219° |
| 2026-05-05 23:53 | 40.81792 | -72.90610 | 12044 ft | 312 kts | 219° |
| 2026-05-05 23:54 | 40.80034 | -72.92287 | 12020 ft | 312 kts | 219° |
| 2026-05-05 23:54 | 40.78276 | -72.93968 | 11830 ft | 312 kts | 219° |
| 2026-05-05 23:54 | 40.76526 | -72.95643 | 11539 ft | 310 kts | 219° |
| 2026-05-05 23:54 | 40.74784 | -72.97309 | 11172 ft | 309 kts | 219° |
| 2026-05-05 23:55 | 40.73047 | -72.98967 | 10805 ft | 307 kts | 219° |
| 2026-05-05 23:55 | 40.71324 | -73.00611 | 10429 ft | 305 kts | 219° |
| 2026-05-05 23:55 | 40.69698 | -73.02354 | 10077 ft | 297 kts | 231° |
| 2026-05-05 23:55 | 40.68748 | -73.04679 | 9735 ft | 291 kts | 253° |
| 2026-05-05 23:56 | 40.68539 | -73.07313 | 9370 ft | 288 kts | 267° |
| 2026-05-05 23:56 | 40.68560 | -73.09923 | 8961 ft | 281 kts | 269° |
| 2026-05-05 23:56 | 40.68606 | -73.12464 | 8577 ft | 275 kts | 269° |
| 2026-05-05 23:56 | 40.68623 | -73.14959 | 8188 ft | 270 kts | 268° |
| 2026-05-05 23:57 | 40.68626 | -73.17407 | 7809 ft | 265 kts | 268° |
| 2026-05-05 23:57 | 40.68635 | -73.19809 | 7434 ft | 260 kts | 268° |
| 2026-05-05 23:57 | 40.68648 | -73.22171 | 7078 ft | 256 kts | 268° |
| 2026-05-05 23:57 | 40.68660 | -73.24496 | 6755 ft | 251 kts | 268° |
| 2026-05-05 23:58 | 40.68669 | -73.26745 | 6445 ft | 247 kts | 268° |
| 2026-05-05 23:58 | 40.68677 | -73.28985 | 6125 ft | 243 kts | 268° |
| 2026-05-05 23:58 | 40.68686 | -73.31191 | 5823 ft | 238 kts | 268° |
| 2026-05-05 23:58 | 40.68695 | -73.33344 | 5560 ft | 233 kts | 267° |
| 2026-05-05 23:59 | 40.68859 | -73.35454 | 5318 ft | 231 kts | 274° |
| 2026-05-05 23:59 | 40.68910 | -73.37544 | 5070 ft | 230 kts | 277° |
| 2026-05-05 23:59 | 40.69671 | -73.39443 | 4855 ft | 243 kts | 302° |
| 2026-05-05 23:59 | 40.70785 | -73.41130 | 4617 ft | 243 kts | 303° |
| 2026-05-06 00:00 | 40.71790 | -73.42897 | 4364 ft | 238 kts | 295° |
| 2026-05-06 00:00 | 40.72538 | -73.44787 | 4120 ft | 234 kts | 287° |
| 2026-05-06 00:00 | 40.73182 | -73.46753 | 3875 ft | 233 kts | 287° |
| 2026-05-06 00:00 | 40.73854 | -73.48702 | 3652 ft | 234 kts | 288° |
| 2026-05-06 00:01 | 40.74553 | -73.50621 | 3404 ft | 230 kts | 288° |
| 2026-05-06 00:01 | 40.75227 | -73.52465 | 3196 ft | 208 kts | 287° |
| 2026-05-06 00:01 | 40.75818 | -73.54095 | 3035 ft | 195 kts | 285° |
| 2026-05-06 00:01 | 40.76385 | -73.55712 | 3034 ft | 193 kts | 285° |
| 2026-05-06 00:02 | 40.76957 | -73.57319 | 3025 ft | 194 kts | 286° |
| 2026-05-06 00:02 | 40.77525 | -73.58903 | 3026 ft | 194 kts | 286° |
| 2026-05-06 00:02 | 40.78101 | -73.60513 | 3024 ft | 194 kts | 286° |
| 2026-05-06 00:02 | 40.78677 | -73.62123 | 2995 ft | 194 kts | 286° |
| 2026-05-06 00:03 | 40.79049 | -73.63765 | 2982 ft | 183 kts | 265° |
| 2026-05-06 00:03 | 40.78870 | -73.65403 | 3005 ft | 178 kts | 247° |
| 2026-05-06 00:03 | 40.78223 | -73.66760 | 2975 ft | 171 kts | 226° |
| 2026-05-06 00:03 | 40.77348 | -73.67636 | 2834 ft | 149 kts | 214° |
| 2026-05-06 00:04 | 40.76435 | -73.68302 | 2664 ft | 146 kts | 212° |
| 2026-05-06 00:04 | 40.75617 | -73.68873 | 2481 ft | 119 kts | 213° |
| 2026-05-06 00:04 | 40.74923 | -73.69362 | 2345 ft | 114 kts | 212° |
| 2026-05-06 00:04 | 40.74244 | -73.69842 | 2199 ft | 110 kts | 212° |
| 2026-05-06 00:05 | 40.72910 | -73.70786 | 1920 ft | 108 kts | 211° |
| 2026-05-06 00:05 | 40.72251 | -73.71252 | 1785 ft | 108 kts | 210° |
| 2026-05-06 00:05 | 40.71577 | -73.71711 | 1657 ft | 111 kts | 207° |
| 2026-05-06 00:06 | 40.70841 | -73.72085 | 1506 ft | 114 kts | 202° |
| 2026-05-06 00:06 | 40.70129 | -73.72474 | 1310 ft | 108 kts | 205° |
| 2026-05-06 00:06 | 40.69425 | -73.72917 | 1195 ft | 117 kts | 206° |
| 2026-05-06 00:06 | 40.68736 | -73.73407 | 1059 ft | 113 kts | 210° |
| 2026-05-06 00:07 | 40.68055 | -73.73944 | 899 ft | 115 kts | 210° |
| 2026-05-06 00:07 | 40.67375 | -73.74498 | 812 ft | 116 kts | 210° |
| 2026-05-06 00:07 | 40.66692 | -73.75049 | 675 ft | 112 kts | 209° |
| 2026-05-06 00:07 | 40.66028 | -73.75571 | 537 ft | 112 kts | 206° |
| 2026-05-06 00:08 | 40.65357 | -73.76100 | 384 ft | 111 kts | 205° |
| 2026-05-06 00:08 | 40.64679 | -73.76634 | 197 ft | 115 kts | 205° |
| 2026-05-06 00:08 | 40.64009 | -73.77157 | 42 ft | 107 kts | 205° |
| 2026-05-06 00:08 | 40.63502 | -73.77532 | 27 ft | 55 kts | 213° |
| 2026-05-06 00:09 | 40.63308 | -73.77704 | 28 ft | 18 kts | 231° |
| 2026-05-06 00:09 | 40.63301 | -73.77786 | 25 ft | 3 kts | 288° |
| 2026-05-06 00:09 | 40.63304 | -73.77794 | 24 ft | 3 kts | 299° |
| 2026-05-06 00:09 | 40.63340 | -73.77874 | 24 ft | 14 kts | 301° |
| 2026-05-06 00:10 | 40.63396 | -73.78006 | 22 ft | 18 kts | 298° |
| 2026-05-06 00:10 | 40.63467 | -73.78166 | 22 ft | 22 kts | 301° |
| 2026-05-06 00:10 | 40.63551 | -73.78270 | 22 ft | 14 kts | 11° |
| 2026-05-06 00:10 | 40.63643 | -73.78258 | 25 ft | 14 kts | 356° |
| 2026-05-06 00:11 | 40.63725 | -73.78258 | 23 ft | 1 kts | 48° |
| 2026-05-06 00:11 | 40.63728 | -73.78236 | 23 ft | 5 kts | 80° |
| 2026-05-06 00:11 | 40.63735 | -73.78174 | 22 ft | 5 kts | 84° |
| 2026-05-06 00:11 | 40.63735 | -73.78172 | 22 ft | 0 kts | 84° |
| 2026-05-06 00:12 | 40.67193 | -73.74644 | 778 ft | 116 kts | 209° |
| 2026-05-06 00:13 | 40.66476 | -73.75218 | 640 ft | 112 kts | 207° |
| 2026-05-06 00:13 | 40.65620 | -73.75903 | 417 ft | 113 kts | 204° |
| 2026-05-06 00:13 | 40.64803 | -73.76541 | 238 ft | 114 kts | 204° |